Time;durP1;ratioP1;P1;durP2;ratioP2;P2;SDS_P1;SDS_P2;PMS_P1;PMS_P2;Temp;Humidity;BMP_temperature;BMP_pressure;BME280_temperature;BME280_humidity;BME280_pressure;Samples;Min_cycle;Max_cycle;Signal;HPM_P1;HPM_P2
2022/07/25 00:00:06;;;;;;;4.00;3.70;;;;;;;14.36;84.72;100833.72;84227;1337;22613;-69
2022/07/25 00:02:37;;;;;;;4.80;4.30;;;;;;;14.33;84.77;100830.55;84219;1338;22611;-69
2022/07/25 00:04:47;;;;;;;7.60;4.10;;;;;;;14.33;84.99;100832.11;84231;1337;22674;-69
2022/07/25 00:06:58;;;;;;;5.40;4.90;;;;;;;14.32;85.00;100828.80;84247;1338;22697;-69
2022/07/25 00:09:09;;;;;;;5.70;4.50;;;;;;;14.32;85.11;100834.42;84191;1338;22862;-69
2022/07/25 00:11:18;;;;;;;6.40;4.00;;;;;;;14.30;85.12;100835.03;84229;1338;22632;-70
2022/07/25 00:13:27;;;;;;;4.60;4.20;;;;;;;14.29;85.10;100830.72;84260;1337;22634;-70
2022/07/25 00:15:36;;;;;;;5.60;3.60;;;;;;;14.26;85.08;100825.77;84199;1338;22593;-70
2022/07/25 00:17:45;;;;;;;4.90;4.50;;;;;;;14.23;85.11;100829.41;84207;1337;23829;-70
2022/07/25 00:19:54;;;;;;;10.40;4.40;;;;;;;14.23;85.18;100825.71;84222;1337;22733;-70
2022/07/25 00:22:03;;;;;;;4.60;4.10;;;;;;;14.20;85.20;100814.98;84259;1337;22596;-71
2022/07/25 00:24:12;;;;;;;4.90;4.40;;;;;;;14.17;85.27;100813.36;84282;1333;22991;-70
2022/07/25 00:26:21;;;;;;;4.60;4.20;;;;;;;14.16;85.47;100810.05;84270;1337;22838;-70
2022/07/25 00:28:30;;;;;;;4.80;4.40;;;;;;;14.14;85.31;100805.77;84270;1337;22595;-70
2022/07/25 00:30:42;;;;;;;6.20;5.00;;;;;;;14.13;85.49;100805.30;84288;1338;23928;-70
2022/07/25 00:32:51;;;;;;;6.60;4.10;;;;;;;14.12;85.58;100794.84;84282;1339;22633;-70
2022/07/25 00:35:00;;;;;;;4.20;3.80;;;;;;;14.09;85.58;100786.89;84322;1336;22609;-70
2022/07/25 00:37:09;;;;;;;5.30;4.80;;;;;;;14.05;85.54;100784.27;84282;1338;22636;-71
2022/07/25 00:39:18;;;;;;;5.10;4.40;;;;;;;14.01;85.70;100787.42;84302;1336;24138;-71
2022/07/25 00:41:27;;;;;;;4.90;4.50;;;;;;;14.00;85.86;100788.02;84272;1337;24262;-71
2022/07/25 00:43:36;;;;;;;6.60;4.80;;;;;;;13.99;85.88;100791.55;84299;1339;22634;-71
2022/07/25 00:45:46;;;;;;;5.40;4.90;;;;;;;13.97;85.83;100793.59;84316;1338;22644;-70
2022/07/25 00:47:55;;;;;;;4.70;4.10;;;;;;;13.94;85.95;100798.44;84282;1337;22817;-70
2022/07/25 00:50:04;;;;;;;5.90;5.40;;;;;;;13.92;85.88;100803.98;84288;1338;22674;-70
2022/07/25 00:52:12;;;;;;;4.50;4.10;;;;;;;13.88;85.87;100803.27;84288;1337;25665;-71
2022/07/25 00:54:22;;;;;;;8.10;4.70;;;;;;;13.87;85.96;100805.27;84294;1340;22591;-70
2022/07/25 00:56:33;;;;;;;5.50;5.00;;;;;;;13.85;86.03;100807.11;84260;1338;22835;-70
2022/07/25 00:58:44;;;;;;;4.10;3.70;;;;;;;13.82;86.06;100805.63;84297;1338;22609;-70
2022/07/25 01:00:53;;;;;;;4.70;4.30;;;;;;;13.77;85.76;100806.23;84284;1337;22686;-70
2022/07/25 01:03:02;;;;;;;5.60;4.80;;;;;;;13.73;85.94;100807.99;84293;1338;22762;-70
2022/07/25 01:05:13;;;;;;;7.50;4.80;;;;;;;13.70;85.97;100807.23;84295;1336;22688;-70
2022/07/25 01:07:22;;;;;;;4.60;4.20;;;;;;;13.67;86.11;100807.67;84293;1337;22607;-70
2022/07/25 01:09:31;;;;;;;7.20;4.40;;;;;;;13.64;86.07;100807.30;84312;1338;22606;-71
2022/07/25 01:11:40;;;;;;;7.00;4.00;;;;;;;13.60;86.22;100803.80;84286;1336;22609;-71
2022/07/25 01:13:49;;;;;;;4.70;4.30;;;;;;;13.57;86.34;100800.95;84298;1337;22617;-71
2022/07/25 01:15:58;;;;;;;4.70;4.30;;;;;;;13.55;86.25;100797.89;84297;1338;24393;-70
2022/07/25 01:18:07;;;;;;;4.90;4.50;;;;;;;13.53;86.48;100799.55;84258;1334;22786;-70
2022/07/25 01:20:18;;;;;;;4.50;4.10;;;;;;;13.52;86.40;100802.92;84285;1341;22947;-70
2022/07/25 01:22:27;;;;;;;5.20;4.70;;;;;;;13.50;86.30;100802.52;84281;1336;22601;-71
2022/07/25 01:24:37;;;;;;;5.80;4.60;;;;;;;13.48;86.50;100802.93;84274;1339;26625;-71
2022/07/25 01:26:46;;;;;;;8.60;5.30;;;;;;;13.46;86.48;100801.79;84266;1338;22632;-71
2022/07/25 01:28:55;;;;;;;4.80;4.40;;;;;;;13.47;86.67;100800.54;84265;1336;25504;-71
2022/07/25 01:31:05;;;;;;;7.80;4.50;;;;;;;13.47;86.60;100795.08;84301;1338;22591;-71
2022/07/25 01:33:18;;;;;;;5.60;4.30;;;;;;;13.45;86.52;100793.58;84292;1338;23130;-71
2022/07/25 01:35:27;;;;;;;6.90;4.50;;;;;;;13.41;86.41;100794.26;84301;1337;26703;-70
2022/07/25 01:37:36;;;;;;;5.50;5.00;;;;;;;13.38;86.39;100795.83;84284;1336;22828;-70
2022/07/25 01:39:45;;;;;;;5.10;4.70;;;;;;;13.33;86.41;100798.31;84317;1338;22624;-70
2022/07/25 01:41:54;;;;;;;6.00;5.20;;;;;;;13.27;86.19;100794.54;84270;1338;25416;-71
2022/07/25 01:44:03;;;;;;;7.60;4.70;;;;;;;13.20;86.13;100794.81;84267;1338;22646;-71
2022/07/25 01:46:13;;;;;;;6.80;4.70;;;;;;;13.17;86.35;100797.03;84267;1341;24003;-71
2022/07/25 01:48:22;;;;;;;5.10;4.70;;;;;;;13.15;86.58;100798.36;84274;1339;23893;-71
2022/07/25 01:50:31;;;;;;;7.40;4.30;;;;;;;13.11;86.74;100798.31;84313;1336;22684;-71
2022/07/25 01:52:41;;;;;;;8.00;5.20;;;;;;;13.07;86.59;100795.86;84269;1338;22575;-71
2022/07/25 01:54:50;;;;;;;6.10;4.80;;;;;;;13.04;86.74;100794.62;84288;1338;22760;-71
2022/07/25 01:56:59;;;;;;;5.00;4.50;;;;;;;13.02;86.69;100796.63;84261;1338;22752;-71
2022/07/25 01:59:09;;;;;;;5.00;4.30;;;;;;;13.00;86.77;100796.19;84304;1341;24257;-71
2022/07/25 02:01:17;;;;;;;;;;;;;;;12.97;86.87;100796.46;84266;1340;24247;-70
2022/07/25 02:03:32;;;;;;;7.60;4.50;;;;;;;12.94;86.80;100795.36;84288;1339;22931;-70
2022/07/25 02:05:41;;;;;;;4.40;4.00;;;;;;;12.92;86.65;100791.95;84292;1337;25485;-69
2022/07/25 02:07:59;;;;;;;7.60;4.80;;;;;;;12.88;86.71;100791.06;84272;1336;24255;-69
2022/07/25 02:10:10;;;;;;;5.50;4.40;;;;;;;12.83;86.87;100788.09;84269;1339;22772;-70
2022/07/25 02:12:19;;;;;;;7.50;5.10;;;;;;;12.83;87.03;100782.15;84280;1337;22590;-70
2022/07/25 02:14:28;;;;;;;6.30;4.90;;;;;;;12.81;86.95;100785.20;84268;1338;25394;-70
2022/07/25 02:16:37;;;;;;;7.30;5.40;;;;;;;12.77;86.99;100784.33;84276;1337;25501;-70
2022/07/25 02:18:46;;;;;;;7.80;5.40;;;;;;;12.73;86.98;100786.95;84264;1339;25378;-70
2022/07/25 02:20:55;;;;;;;5.20;4.50;;;;;;;12.71;87.02;100787.39;84247;1339;22600;-70
2022/07/25 02:23:04;;;;;;;5.40;4.90;;;;;;;12.69;87.15;100784.11;84315;1336;25314;-70
2022/07/25 02:25:15;;;;;;;5.70;5.10;;;;;;;12.67;87.17;100779.12;84170;1338;22601;-71
2022/07/25 02:27:24;;;;;;;5.90;5.40;;;;;;;12.68;87.26;100781.73;84346;1339;22633;-71
2022/07/25 02:29:33;;;;;;;5.90;5.20;;;;;;;12.67;87.50;100778.09;84379;1336;24001;-70
2022/07/25 02:31:42;;;;;;;5.30;4.90;;;;;;;12.65;87.47;100782.52;84348;1335;22715;-70
2022/07/25 02:33:51;;;;;;;5.50;5.00;;;;;;;12.63;87.27;100782.27;84368;1335;22698;-70
2022/07/25 02:36:00;;;;;;;6.40;5.40;;;;;;;12.61;87.42;100780.59;84371;1335;25437;-70
2022/07/25 02:38:09;;;;;;;6.60;5.20;;;;;;;12.62;87.54;100781.06;84355;1338;22804;-70
2022/07/25 02:40:18;;;;;;;6.10;5.60;;;;;;;12.61;87.63;100784.59;84358;1339;22616;-70
2022/07/25 02:42:27;;;;;;;5.60;5.10;;;;;;;12.58;87.61;100781.06;84361;1333;23021;-70
2022/07/25 02:44:36;;;;;;;6.60;6.00;;;;;;;12.58;87.56;100779.30;84194;1341;22628;-70
2022/07/25 02:46:45;;;;;;;6.30;5.70;;;;;;;12.58;87.87;100785.08;84352;1337;23970;-70
2022/07/25 02:48:54;;;;;;;7.10;5.50;;;;;;;12.55;87.72;100792.02;84369;1336;22591;-70
2022/07/25 02:51:03;;;;;;;7.10;5.60;;;;;;;12.56;88.00;100792.34;84355;1339;22614;-70
2022/07/25 02:53:12;;;;;;;8.70;6.60;;;;;;;12.55;87.80;100792.36;84196;1338;24283;-70
2022/07/25 02:55:22;;;;;;;7.00;5.10;;;;;;;12.55;87.98;100799.72;84352;1333;22834;-71
2022/07/25 02:57:30;;;;;;;6.30;5.50;;;;;;;12.55;88.13;100798.48;84165;1341;22590;-71
2022/07/25 02:59:40;;;;;;;7.10;5.40;;;;;;;12.56;88.30;100799.16;84353;1336;22730;-71
2022/07/25 03:01:49;;;;;;;11.60;5.60;;;;;;;12.58;88.49;100800.32;84365;1336;25481;-71
2022/07/25 03:03:57;;;;;;;6.90;5.70;;;;;;;12.58;88.38;100796.09;84356;1335;22625;-71
2022/07/25 03:06:07;;;;;;;6.20;5.60;;;;;;;12.58;88.32;100795.96;84348;1335;23929;-70
2022/07/25 03:08:16;;;;;;;10.30;5.30;;;;;;;12.59;88.41;100792.58;84377;1336;22589;-70
2022/07/25 03:10:26;;;;;;;6.40;5.80;;;;;;;12.61;88.55;100791.43;84209;1338;22619;-70
2022/07/25 03:12:37;;;;;;;;;;;;;;;12.64;88.65;100788.52;84401;1338;22682;-68
2022/07/25 03:14:46;;;;;;;6.70;6.00;;;;;;;12.63;88.63;100792.75;84341;1333;22600;-69
2022/07/25 03:16:56;;;;;;;8.40;5.20;;;;;;;12.64;88.79;100793.21;84352;1338;22631;-69
2022/07/25 03:19:11;;;;;;;6.90;6.20;;;;;;;12.67;88.88;100793.33;84374;1336;24254;-69
2022/07/25 03:21:21;;;;;;;8.30;5.60;;;;;;;12.68;88.99;100790.80;84375;1336;22610;-70
2022/07/25 03:23:31;;;;;;;10.60;5.90;;;;;;;12.71;89.01;100792.98;84303;1337;22628;-70
2022/07/25 03:25:40;;;;;;;7.80;6.00;;;;;;;12.75;89.14;100792.09;84377;1336;22745;-70
2022/07/25 03:27:49;;;;;;;6.60;6.00;;;;;;;12.78;89.16;100788.30;84382;1336;22607;-70
2022/07/25 03:29:58;;;;;;;5.90;5.10;;;;;;;12.80;89.36;100787.34;84369;1335;24302;-70
2022/07/25 03:32:08;;;;;;;7.00;5.40;;;;;;;12.82;89.48;100780.95;84347;1336;26554;-71
2022/07/25 03:34:18;;;;;;;5.50;5.10;;;;;;;12.86;89.38;100784.65;84301;1334;22614;-70
2022/07/25 03:36:28;;;;;;;6.90;4.90;;;;;;;12.89;89.30;100786.29;84351;1336;23080;-70
2022/07/25 03:38:36;;;;;;;7.70;5.10;;;;;;;12.94;89.60;100789.41;84382;1335;22618;-70
2022/07/25 03:40:45;;;;;;;6.10;5.50;;;;;;;12.99;89.59;100790.59;84278;1340;24295;-70
2022/07/25 03:42:59;;;;;;;5.60;5.10;;;;;;;13.05;89.86;100793.31;84355;1336;26456;-70
2022/07/25 03:45:12;;;;;;;5.70;4.90;;;;;;;13.13;90.00;100790.71;84101;1335;25029;-71
2022/07/25 03:47:22;;;;;;;5.70;5.10;;;;;;;13.32;90.44;100787.51;84364;1335;22594;-71
2022/07/25 03:49:32;;;;;;;5.80;4.70;;;;;;;13.89;91.48;100783.61;84362;1335;25554;-71
2022/07/25 03:51:43;;;;;;;5.10;4.70;;;;;;;14.82;92.58;100787.63;84353;1336;22597;-71
2022/07/25 03:54:02;;;;;;;6.20;5.00;;;;;;;15.80;92.43;100783.20;84408;1335;23512;-71
2022/07/25 03:56:16;;;;;;;5.50;4.60;;;;;;;16.76;91.14;100785.33;84349;1336;25451;-72
2022/07/25 03:58:26;;;;;;;4.80;3.90;;;;;;;17.66;88.93;100784.96;84358;1339;22609;-72
2022/07/25 04:00:35;;;;;;;6.80;4.30;;;;;;;18.55;87.14;100776.42;84359;1336;22762;-71
2022/07/25 04:02:45;;;;;;;4.30;4.00;;;;;;;19.34;84.23;100771.00;84367;1336;22672;-71
2022/07/25 04:04:58;;;;;;;4.30;3.70;;;;;;;20.13;80.89;100770.46;84396;1336;22614;-72
2022/07/25 04:07:09;;;;;;;5.30;4.30;;;;;;;20.79;77.32;100766.34;84371;1335;22602;-72
2022/07/25 04:09:22;;;;;;;5.00;4.50;;;;;;;21.43;73.95;100766.99;84365;1335;22687;-71
2022/07/25 04:11:34;;;;;;;7.70;3.70;;;;;;;21.95;71.32;100766.52;84366;1335;22671;-70
2022/07/25 04:13:44;;;;;;;5.20;4.30;;;;;;;22.39;68.21;100763.53;84425;1339;22602;-71
2022/07/25 04:15:55;;;;;;;4.40;4.00;;;;;;;22.82;67.29;100763.02;84378;1336;22693;-71
2022/07/25 04:18:09;;;;;;;4.80;4.10;;;;;;;23.24;65.52;100765.77;84257;1336;22616;-71
2022/07/25 04:20:19;;;;;;;10.80;4.80;;;;;;;23.30;63.70;100770.23;84376;1339;25315;-71
2022/07/25 04:22:34;;;;;;;5.70;4.30;;;;;;;23.10;63.11;100774.54;84361;1335;22619;-71
2022/07/25 04:24:46;;;;;;;4.20;3.80;;;;;;;23.02;62.58;100773.79;84410;1338;26553;-71
2022/07/25 04:26:57;;;;;;;8.70;4.30;;;;;;;22.68;61.15;100776.64;84370;1336;22820;-71
2022/07/25 04:29:13;;;;;;;5.30;4.00;;;;;;;22.13;61.09;100777.88;84351;1337;22596;-73
2022/07/25 04:31:25;;;;;;;5.00;4.20;;;;;;;21.53;62.54;100778.67;84350;1339;22623;-70
2022/07/25 04:33:34;;;;;;;4.50;4.10;;;;;;;21.09;63.32;100779.73;84385;1335;23324;-70
2022/07/25 04:35:44;;;;;;;10.90;4.50;;;;;;;20.73;64.30;100775.31;84175;1338;22814;-71
2022/07/25 04:37:53;;;;;;;5.70;4.80;;;;;;;20.42;65.11;100773.35;84354;1336;22606;-71
2022/07/25 04:40:01;;;;;;;6.30;4.70;;;;;;;20.20;66.03;100772.64;84341;1338;24049;-70
2022/07/25 04:42:11;;;;;;;5.80;5.30;;;;;;;20.01;66.56;100771.00;84367;1339;24287;-71
2022/07/25 04:44:21;;;;;;;5.60;5.10;;;;;;;19.80;67.18;100775.42;84374;1334;22625;-71
2022/07/25 04:46:41;;;;;;;5.90;5.50;;;;;;;19.61;68.12;100770.42;84368;1336;22608;-70
2022/07/25 04:48:51;;;;;;;8.30;5.60;;;;;;;19.51;68.85;100772.11;84179;1341;22614;-70
2022/07/25 04:51:01;;;;;;;6.30;5.80;;;;;;;19.49;69.53;100775.79;84392;1336;22859;-70
2022/07/25 04:53:11;;;;;;;6.70;6.20;;;;;;;19.48;69.91;100773.38;84379;1330;22593;-70
2022/07/25 04:55:20;;;;;;;5.90;5.40;;;;;;;19.68;70.53;100769.21;84362;1336;22616;-70
2022/07/25 04:57:29;;;;;;;6.60;5.00;;;;;;;20.48;71.41;100771.16;84343;1335;22590;-70
2022/07/25 04:59:38;;;;;;;5.70;4.60;;;;;;;21.56;70.20;100771.51;84386;1335;24078;-70
2022/07/25 05:01:47;;;;;;;7.30;5.30;;;;;;;22.68;69.11;100764.22;84375;1336;22727;-68
2022/07/25 05:03:56;;;;;;;5.30;4.90;;;;;;;23.81;66.74;100761.38;84353;1336;22595;-70
2022/07/25 05:06:05;;;;;;;6.30;4.30;;;;;;;24.77;62.53;100759.52;84370;1336;25443;-70
2022/07/25 05:08:15;;;;;;;4.80;4.20;;;;;;;25.92;60.39;100755.79;84358;1336;22583;-70
2022/07/25 05:10:24;;;;;;;8.30;4.50;;;;;;;26.76;56.92;100752.31;84376;1336;22612;-70
2022/07/25 05:12:33;;;;;;;4.80;4.40;;;;;;;27.51;55.16;100754.86;84382;1337;22620;-69
2022/07/25 05:14:42;;;;;;;6.00;3.50;;;;;;;28.04;53.01;100750.83;84377;1336;24294;-69
2022/07/25 05:16:51;;;;;;;3.90;3.50;;;;;;;28.53;50.62;100752.13;84386;1336;22617;-70
2022/07/25 05:18:59;;;;;;;5.20;4.20;;;;;;;29.13;47.55;100749.88;84294;1337;22829;-70
2022/07/25 05:21:13;;;;;;;4.30;3.90;;;;;;;29.59;46.68;100749.24;84353;1335;22612;-70
2022/07/25 05:23:23;;;;;;;6.20;4.00;;;;;;;30.03;44.44;100745.36;84372;1339;22603;-70
2022/07/25 05:25:32;;;;;;;6.70;3.80;;;;;;;30.49;44.37;100739.46;84381;1338;26497;-70
2022/07/25 05:27:41;;;;;;;4.10;3.70;;;;;;;30.64;43.02;100739.46;84344;1335;23925;-70
2022/07/25 05:29:50;;;;;;;3.40;3.20;;;;;;;30.94;42.58;100734.85;84392;1336;22596;-70
2022/07/25 05:31:59;;;;;;;4.20;3.80;;;;;;;31.33;41.32;100734.79;84358;1336;22624;-71
2022/07/25 05:34:10;;;;;;;9.50;3.90;;;;;;;31.74;40.11;100729.86;84369;1335;22607;-71
2022/07/25 05:36:19;;;;;;;4.10;2.80;;;;;;;32.02;40.05;100727.21;84396;1336;25458;-70
2022/07/25 05:38:28;;;;;;;4.10;3.00;;;;;;;32.23;38.62;100726.15;84381;1336;23891;-70
2022/07/25 05:40:37;;;;;;;4.20;3.40;;;;;;;32.36;37.37;100723.57;84395;1336;24090;-70
2022/07/25 05:42:46;;;;;;;7.00;3.30;;;;;;;32.66;37.73;100722.67;84383;1335;24346;-69
2022/07/25 05:44:55;;;;;;;4.00;2.90;;;;;;;32.85;36.72;100719.16;84398;1335;22597;-69
2022/07/25 05:47:04;;;;;;;3.30;2.60;;;;;;;33.06;36.20;100721.77;84374;1335;22861;-69
2022/07/25 05:49:11;;;;;;;;;;;;;;;33.14;35.77;100719.52;84403;1336;22547;-69
2022/07/25 05:51:20;;;;;;;4.30;2.30;;;;;;;33.20;35.37;100724.19;84386;1335;22598;-71
2022/07/25 05:53:29;;;;;;;4.00;2.10;;;;;;;33.28;34.69;100726.75;84368;1335;26056;-70
2022/07/25 05:55:38;;;;;;;4.30;3.10;;;;;;;33.36;34.46;100728.14;84364;1336;22841;-70
2022/07/25 05:57:47;;;;;;;3.30;2.50;;;;;;;33.44;33.95;100726.54;84378;1335;24013;-70
2022/07/25 05:59:56;;;;;;;2.80;2.10;;;;;;;33.50;33.45;100725.02;84374;1339;22615;-71
2022/07/25 06:02:06;;;;;;;2.50;1.80;;;;;;;33.52;33.68;100724.48;84382;1330;25354;-71
2022/07/25 06:04:15;;;;;;;2.20;2.10;;;;;;;33.76;33.39;100720.80;84343;1336;22934;-70
2022/07/25 06:06:24;;;;;;;2.70;2.00;;;;;;;33.81;33.54;100719.75;84354;1335;22674;-70
2022/07/25 06:08:39;;;;;;;4.70;2.10;;;;;;;34.13;33.24;100722.73;84361;1336;22600;-68
2022/07/25 06:10:48;;;;;;;3.90;2.80;;;;;;;34.54;31.97;100719.14;84374;1335;24298;-71
2022/07/25 06:12:58;;;;;;;2.60;1.60;;;;;;;34.79;31.89;100714.11;84387;1332;25308;-71
2022/07/25 06:15:09;;;;;;;3.50;2.00;;;;;;;35.07;30.94;100719.58;84395;1336;22612;-71
2022/07/25 06:17:18;;;;;;;2.40;1.80;;;;;;;35.35;30.58;100718.98;84399;1335;22675;-69
2022/07/25 06:19:27;;;;;;;2.10;1.90;;;;;;;35.51;30.16;100718.27;84417;1336;25472;-70
2022/07/25 06:21:36;;;;;;;2.40;2.20;;;;;;;35.56;29.71;100712.07;84401;1336;22730;-71
2022/07/25 06:23:45;;;;;;;2.10;1.90;;;;;;;35.51;29.43;100712.79;84395;1338;22601;-71
2022/07/25 06:25:52;;;;;;;;;;;;;;;35.44;29.61;100709.15;84423;1336;24258;-70
2022/07/25 06:28:02;;;;;;;2.20;2.00;;;;;;;35.54;29.52;100705.75;84370;1336;23717;-70
2022/07/25 06:30:13;;;;;;;2.20;2.00;;;;;;;35.69;29.84;100703.93;84423;1336;22592;-70
2022/07/25 06:32:23;;;;;;;3.40;2.10;;;;;;;35.70;29.54;100699.12;84376;1336;25589;-70
2022/07/25 06:34:32;;;;;;;5.80;2.40;;;;;;;35.67;30.04;100697.73;84374;1336;22598;-70
2022/07/25 06:36:43;;;;;;;4.10;2.00;;;;;;;35.65;29.65;100694.15;84371;1336;23925;-70
2022/07/25 06:38:52;;;;;;;2.30;1.80;;;;;;;35.96;29.82;100692.91;84375;1335;22588;-70
2022/07/25 06:41:02;;;;;;;2.70;2.00;;;;;;;36.11;29.59;100684.91;84371;1335;22633;-70
2022/07/25 06:43:11;;;;;;;4.00;2.00;;;;;;;36.11;29.12;100685.08;84277;1337;22613;-70
2022/07/25 06:45:18;;;;;;;;;;;;;;;36.36;28.75;100683.80;84403;1336;22572;-70
2022/07/25 06:47:27;;;;;;;5.90;2.50;;;;;;;36.58;27.98;100678.37;84271;1337;23997;-70
2022/07/25 06:49:36;;;;;;;3.90;1.90;;;;;;;37.01;27.71;100679.74;84374;1336;22608;-69
2022/07/25 06:51:45;;;;;;;2.50;2.30;;;;;;;37.29;27.43;100684.21;84370;1330;22956;-70
2022/07/25 06:53:55;;;;;;;3.00;2.60;;;;;;;37.17;27.03;100683.42;84353;1333;22814;-70
2022/07/25 06:56:04;;;;;;;3.30;1.90;;;;;;;36.96;26.92;100684.04;84379;1336;23923;-69
2022/07/25 06:58:13;;;;;;;5.60;2.20;;;;;;;36.90;27.46;100677.75;84379;1336;25440;-71
2022/07/25 07:00:21;;;;;;;;;;;;;;;36.76;27.31;100677.56;84365;1335;22720;-69
2022/07/25 07:02:30;;;;;;;3.00;2.00;;;;;;;36.60;27.53;100675.52;84391;1335;22621;-70
2022/07/25 07:04:39;;;;;;;2.30;2.00;;;;;;;36.56;27.47;100677.48;84363;1335;22612;-69
2022/07/25 07:06:46;;;;;;;;;;;;;;;36.45;26.89;100676.52;84391;1336;24258;-69
2022/07/25 07:08:55;;;;;;;3.10;1.80;;;;;;;36.41;27.57;100675.59;84384;1336;22601;-69
2022/07/25 07:11:04;;;;;;;1.80;1.70;;;;;;;36.55;27.53;100674.80;84366;1336;22600;-70
2022/07/25 07:13:17;;;;;;;1.90;1.80;;;;;;;36.81;27.03;100675.60;84389;1336;24272;-70
2022/07/25 07:15:40;;;;;;;7.00;6.50;;;;;;;37.32;26.49;100675.04;84440;1336;22670;-69
2022/07/25 07:17:57;;;;;;;2.80;2.00;;;;;;;37.75;25.90;100676.64;84434;1336;22644;-69
2022/07/25 07:20:23;;;;;;;2.10;1.90;;;;;;;37.71;25.64;100676.04;84425;1329;23071;-70
2022/07/25 07:22:48;;;;;;;2.00;1.50;;;;;;;37.94;24.47;100676.67;84408;1336;24121;-70
2022/07/25 07:25:03;;;;;;;2.10;1.80;;;;;;;37.76;24.73;100667.44;84443;1337;24142;-70
2022/07/25 07:27:22;;;;;;;2.80;1.80;;;;;;;37.44;24.99;100666.19;84425;1335;22616;-70
2022/07/25 07:29:38;;;;;;;2.80;1.80;;;;;;;37.53;25.28;100668.18;84439;1336;22665;-69
2022/07/25 07:31:50;;;;;;;1.90;1.50;;;;;;;37.79;25.12;100663.98;84418;1334;22633;-69
2022/07/25 07:34:06;;;;;;;2.50;1.50;;;;;;;37.91;24.90;100659.15;84346;1338;22648;-70
2022/07/25 07:36:28;;;;;;;1.70;1.60;;;;;;;37.71;25.06;100657.63;84449;1335;22842;-70
2022/07/25 07:38:40;;;;;;;2.00;1.70;;;;;;;37.58;24.79;100655.64;84455;1333;23074;-70
2022/07/25 07:40:51;;;;;;;2.30;1.90;;;;;;;37.48;24.97;100654.50;84232;1330;22728;-71
2022/07/25 07:43:02;;;;;;;1.60;1.50;;;;;;;37.84;24.66;100657.90;84403;1335;22617;-71
2022/07/25 07:45:17;;;;;;;1.80;1.70;;;;;;;38.29;23.87;100651.41;84393;1336;23082;-72
2022/07/25 07:47:26;;;;;;;3.70;1.70;;;;;;;38.56;23.09;100645.81;84398;1335;23793;-72
2022/07/25 07:49:35;;;;;;;1.80;1.70;;;;;;;38.32;23.34;100644.27;84383;1336;25359;-70
2022/07/25 07:51:44;;;;;;;1.80;1.70;;;;;;;38.42;23.84;100641.75;84372;1335;22599;-71
2022/07/25 07:56:19;;;;;;;1.80;1.70;;;;;;;39.09;23.45;100647.59;84392;1333;22627;-69
2022/07/25 07:58:28;;;;;;;1.90;1.60;;;;;;;39.29;23.33;100647.73;84354;1335;25338;-69
2022/07/25 08:00:39;;;;;;;1.60;1.50;;;;;;;39.57;22.18;100644.05;84399;1333;22840;-69
2022/07/25 08:02:51;;;;;;;2.30;1.40;;;;;;;39.60;21.88;100639.66;84365;1335;22605;-70
2022/07/25 08:05:00;;;;;;;3.30;1.30;;;;;;;39.64;22.62;100635.75;84399;1335;22598;-69
2022/07/25 08:07:10;;;;;;;2.60;1.40;;;;;;;39.48;21.41;100639.52;84372;1335;25276;-69
2022/07/25 08:09:18;;;;;;;1.40;1.10;;;;;;;39.25;21.26;100638.73;84290;1338;22897;-71
2022/07/25 08:11:28;;;;;;;1.50;1.40;;;;;;;39.29;21.17;100631.63;84348;1333;22760;-71
2022/07/25 08:13:38;;;;;;;1.40;1.30;;;;;;;38.93;21.81;100627.67;84367;1335;24270;-71
2022/07/25 08:15:48;;;;;;;1.90;1.60;;;;;;;38.37;22.63;100632.00;84375;1335;27154;-71
2022/07/25 08:17:59;;;;;;;2.10;1.40;;;;;;;38.18;22.48;100632.81;84370;1335;22579;-71
2022/07/25 08:20:11;;;;;;;1.60;1.30;;;;;;;38.16;22.63;100631.89;84367;1335;22709;-71
2022/07/25 08:22:20;;;;;;;1.50;1.30;;;;;;;38.05;23.26;100626.96;84380;1336;22613;-69
2022/07/25 08:24:29;;;;;;;1.70;1.40;;;;;;;38.33;23.29;100631.75;84385;1336;25307;-70
2022/07/25 08:26:38;;;;;;;2.20;1.90;;;;;;;38.67;22.20;100630.61;84367;1335;22617;-71
2022/07/25 08:28:47;;;;;;;1.80;1.70;;;;;;;38.61;21.97;100624.98;84401;1337;22622;-69
2022/07/25 08:30:57;;;;;;;1.90;1.50;;;;;;;38.67;22.20;100620.89;84386;1336;23064;-70
2022/07/25 08:33:09;;;;;;;2.70;1.80;;;;;;;38.85;22.88;100618.86;84380;1335;22588;-70
2022/07/25 08:35:18;;;;;;;1.60;1.50;;;;;;;38.83;21.74;100614.98;84227;1338;22743;-70
2022/07/25 08:37:27;;;;;;;1.90;1.70;;;;;;;38.90;22.49;100616.13;84353;1336;22615;-69
2022/07/25 08:39:36;;;;;;;1.90;1.70;;;;;;;39.16;21.87;100617.20;84343;1333;22587;-70
2022/07/25 08:41:45;;;;;;;2.30;1.70;;;;;;;39.55;21.51;100614.27;84358;1336;22613;-72
2022/07/25 08:43:54;;;;;;;2.30;1.50;;;;;;;39.97;20.97;100611.50;84349;1336;22635;-69
2022/07/25 08:46:04;;;;;;;1.90;1.50;;;;;;;40.14;20.50;100612.11;84384;1335;22608;-72
2022/07/25 08:48:13;;;;;;;1.90;1.80;;;;;;;40.16;20.39;100612.64;84386;1333;22682;-72
2022/07/25 08:50:24;;;;;;;2.70;1.50;;;;;;;40.07;19.91;100611.27;84277;1329;25536;-72
2022/07/25 08:52:38;;;;;;;3.00;1.40;;;;;;;40.02;20.38;100609.24;84381;1336;22617;-71
2022/07/25 08:54:48;;;;;;;2.50;1.40;;;;;;;40.09;21.27;100608.63;84394;1335;22624;-70
2022/07/25 08:56:57;;;;;;;2.80;1.60;;;;;;;40.01;21.18;100608.63;84352;1336;24278;-71
2022/07/25 08:59:09;;;;;;;1.80;1.70;;;;;;;39.74;21.05;100609.27;84364;1330;22707;-71
2022/07/25 09:01:19;;;;;;;1.70;1.60;;;;;;;39.20;21.59;100603.55;84381;1335;22604;-71
2022/07/25 09:03:28;;;;;;;1.60;1.50;;;;;;;38.94;21.74;100600.45;84371;1336;22614;-72
2022/07/25 09:05:37;;;;;;;2.20;1.60;;;;;;;39.10;21.49;100596.59;84394;1330;22616;-70
2022/07/25 09:07:46;;;;;;;2.40;1.40;;;;;;;39.03;21.16;100601.16;84393;1334;22613;-71
2022/07/25 09:09:55;;;;;;;2.20;1.70;;;;;;;39.05;21.48;100596.52;84302;1337;22596;-70
2022/07/25 09:12:08;;;;;;;2.00;1.90;;;;;;;39.18;21.40;100597.06;84363;1336;24158;-71
2022/07/25 09:14:18;;;;;;;2.00;1.70;;;;;;;39.20;21.53;100595.52;84395;1333;22596;-70
2022/07/25 09:16:35;;;;;;;2.10;1.90;;;;;;;38.97;22.46;100593.19;84409;1335;24263;-72
2022/07/25 09:18:44;;;;;;;2.00;1.60;;;;;;;38.81;22.76;100588.02;84401;1336;25350;-70
2022/07/25 09:20:54;;;;;;;3.60;1.80;;;;;;;38.88;22.81;100586.48;84447;1336;22738;-71
2022/07/25 09:23:03;;;;;;;4.80;1.50;;;;;;;38.83;22.33;100583.80;84404;1335;22605;-71
2022/07/25 09:25:26;;;;;;;1.90;1.80;;;;;;;38.58;22.78;100582.65;84417;1336;27431;-72
2022/07/25 09:27:37;;;;;;;3.00;1.30;;;;;;;38.31;22.61;100583.89;84408;1336;25457;-71
2022/07/25 09:29:47;;;;;;;1.80;1.70;;;;;;;38.03;22.27;100584.38;84295;1334;22621;-70
2022/07/25 09:31:57;;;;;;;1.70;1.60;;;;;;;37.71;22.76;100589.09;84391;1336;24169;-68
2022/07/25 09:34:10;;;;;;;2.10;1.80;;;;;;;37.30;23.35;100587.19;84374;1336;22614;-69
2022/07/25 09:36:19;;;;;;;2.50;1.60;;;;;;;36.89;23.72;100583.38;84413;1336;25427;-70
2022/07/25 09:38:32;;;;;;;2.80;1.60;;;;;;;36.40;24.34;100583.48;84399;1336;22676;-69
2022/07/25 09:40:55;;;;;;;2.00;1.70;;;;;;;35.99;25.01;100581.25;84201;1338;22820;-69
2022/07/25 09:43:04;;;;;;;2.50;1.30;;;;;;;35.59;26.26;100580.73;84381;1336;22623;-71
2022/07/25 09:45:13;;;;;;;;;;;;;;;35.35;25.80;100584.08;84402;1336;22584;-69
2022/07/25 09:47:23;;;;;;;1.60;1.20;;;;;;;34.98;25.77;100584.09;84409;1336;26621;-71
2022/07/25 09:49:46;;;;;;;3.20;1.60;;;;;;;34.73;26.54;100580.32;84282;1337;25460;-71
2022/07/25 09:51:55;;;;;;;1.70;1.60;;;;;;;34.54;27.07;100581.67;84394;1335;22627;-70
2022/07/25 09:54:03;;;;;;;;;;;;;;;34.36;27.03;100576.68;84407;1336;22572;-70
2022/07/25 09:56:12;;;;;;;3.60;1.70;;;;;;;34.11;26.86;100579.46;84399;1335;26573;-71
2022/07/25 09:58:22;;;;;;;3.60;1.50;;;;;;;33.91;27.35;100578.75;84394;1336;23978;-70
2022/07/25 10:00:31;;;;;;;2.00;1.60;;;;;;;33.73;27.76;100578.11;84398;1335;23960;-71
2022/07/25 10:02:49;;;;;;;3.50;2.60;;;;;;;33.54;27.87;100572.30;84393;1335;24389;-70
2022/07/25 10:05:09;;;;;;;2.50;1.70;;;;;;;33.35;28.22;100576.27;84419;1330;22608;-68
2022/07/25 10:07:19;;;;;;;2.90;1.70;;;;;;;33.26;28.29;100568.60;84416;1332;24230;-71
2022/07/25 10:09:28;;;;;;;2.80;1.50;;;;;;;33.11;28.86;100568.04;84429;1336;22602;-70